createdAt,value
2018-10-19T00:01:07.353Z,101855.67
2018-10-19T00:03:40.965Z,101863.27
2018-10-19T00:06:09.839Z,101862.91
2018-10-19T00:08:38.660Z,101870.48
2018-10-19T00:11:07.624Z,101870.13
2018-10-19T00:13:36.336Z,101862.05
2018-10-19T00:16:05.355Z,101857.14
2018-10-19T00:18:34.265Z,101861.66
2018-10-19T00:21:03.935Z,101854.57
2018-10-19T00:23:32.694Z,101850.53
2018-10-19T00:26:01.504Z,101855.41
2018-10-19T00:28:30.273Z,101855.41
2018-10-19T00:30:59.093Z,101856.40
2018-10-19T00:33:27.968Z,101853.23
2018-10-19T00:35:56.798Z,101858.61
2018-10-19T00:38:25.528Z,101854.57
2018-10-19T00:40:54.365Z,101855.92
2018-10-19T00:43:23.122Z,101850.02
2018-10-19T00:45:51.854Z,101851.88
2018-10-19T00:48:21.179Z,101851.38
2018-10-19T00:50:50.034Z,101852.72
2018-10-19T00:53:18.881Z,101860.79
2018-10-19T00:55:47.776Z,101856.87
2018-10-19T00:58:16.589Z,101860.79
2018-10-19T01:00:45.471Z,101864.35
2018-10-19T01:03:15.006Z,101865.70
2018-10-19T01:05:43.637Z,101871.08
2018-10-19T01:08:12.487Z,101878.20
2018-10-19T01:10:41.260Z,101879.55
2018-10-19T01:13:10.010Z,101871.08
2018-10-19T01:15:38.775Z,101868.39
2018-10-19T01:18:07.586Z,101864.35
2018-10-19T01:20:36.356Z,101866.09
2018-10-19T01:23:05.545Z,101866.56
2018-10-19T01:25:34.439Z,101866.56
2018-10-19T01:28:03.185Z,101862.53
2018-10-19T01:30:31.943Z,101857.14
2018-10-19T01:33:00.761Z,101856.75
2018-10-19T01:35:29.678Z,101858.97
2018-10-19T01:37:58.519Z,101854.45
2018-10-19T01:40:28.005Z,101853.58
2018-10-19T01:42:56.786Z,101856.66
2018-10-19T01:45:25.738Z,101845.98
2018-10-19T01:47:54.559Z,101850.53
2018-10-19T01:50:23.413Z,101852.23
2018-10-19T01:52:52.151Z,101852.23
2018-10-19T01:55:25.728Z,101842.94
2018-10-19T01:57:54.767Z,101851.88
2018-10-19T02:00:23.850Z,101852.36
2018-10-19T02:02:52.659Z,101855.05
2018-10-19T02:05:21.421Z,101859.09
2018-10-19T02:07:50.382Z,101859.09
2018-10-19T02:10:19.125Z,101859.56
2018-10-19T02:12:47.919Z,101856.87
2018-10-19T02:15:16.847Z,101860.91
2018-10-19T02:17:45.474Z,101864.47
2018-10-19T02:20:14.248Z,101859.56
2018-10-19T02:22:43.053Z,101865.81
2018-10-19T02:25:11.892Z,101867.64
2018-10-19T02:27:40.631Z,101863.61
2018-10-19T02:30:09.552Z,101863.61
2018-10-19T02:32:38.345Z,101870.34
2018-10-19T02:35:07.245Z,101875.72
2018-10-19T02:37:36.006Z,101866.69
2018-10-19T02:40:05.239Z,101868.03
2018-10-19T02:42:34.019Z,101868.52
2018-10-19T02:45:03.064Z,101876.95
2018-10-19T02:47:31.772Z,101871.56
2018-10-19T02:50:00.485Z,101876.86
2018-10-19T02:52:29.235Z,101878.30
2018-10-19T02:54:57.998Z,101878.69
2018-10-19T02:57:26.703Z,101877.81
2018-10-19T02:59:55.423Z,101882.72
2018-10-19T03:02:24.346Z,101875.51
2018-10-19T03:04:53.329Z,101878.08
2018-10-19T03:07:22.137Z,101874.25
2018-10-19T03:09:51.549Z,101875.51
2018-10-19T03:12:20.413Z,101884.94
2018-10-19T03:14:49.433Z,101887.15
2018-10-19T03:17:18.179Z,101886.64
2018-10-19T03:19:46.963Z,101891.66
2018-10-19T03:22:23.568Z,101889.45
2018-10-19T03:24:52.473Z,101890.31
2018-10-19T03:27:21.313Z,101885.89
2018-10-19T03:29:50.161Z,101884.19
2018-10-19T03:32:18.931Z,101889.06
2018-10-19T03:34:47.709Z,101893.09
2018-10-19T03:37:16.547Z,101886.88
2018-10-19T03:39:45.735Z,101885.53
2018-10-19T03:42:14.646Z,101889.57
2018-10-19T03:44:43.410Z,101899.35
2018-10-19T03:47:12.220Z,101891.75
2018-10-19T03:49:41.138Z,101890.92
2018-10-19T03:52:09.869Z,101901.56
2018-10-19T03:54:38.670Z,101906.56
2018-10-19T03:57:07.523Z,101902.52
2018-10-19T03:59:36.221Z,101901.69
2018-10-19T04:02:05.264Z,101902.16
2018-10-19T04:04:34.016Z,101903.87
2018-10-19T04:07:02.766Z,101904.73
2018-10-19T04:09:31.569Z,101897.65
2018-10-19T04:12:00.306Z,101903.98
2018-10-19T04:14:29.057Z,101903.03
2018-10-19T04:16:58.029Z,101899.00
2018-10-19T04:19:27.349Z,101908.03
2018-10-19T04:21:56.325Z,101902.64
2018-10-19T04:24:25.258Z,101904.37
2018-10-19T04:26:54.108Z,101903.03
2018-10-19T04:29:22.870Z,101899.47
2018-10-19T04:31:51.676Z,101903.98
2018-10-19T04:34:20.494Z,101905.33
2018-10-19T04:36:49.223Z,101909.38
2018-10-19T04:39:18.060Z,101910.23
2018-10-19T04:41:47.042Z,101906.68
2018-10-19T04:44:15.670Z,101902.16
2018-10-19T04:46:44.444Z,101908.42
2018-10-19T04:49:13.205Z,101904.37
2018-10-19T04:51:41.989Z,101906.68
2018-10-19T04:54:10.787Z,101903.52
2018-10-19T04:56:39.572Z,101901.69
2018-10-19T04:59:08.367Z,101908.42
2018-10-19T05:01:37.502Z,101911.11
2018-10-19T05:04:06.886Z,101906.56
2018-10-19T05:06:35.667Z,101899.08
2018-10-19T05:09:06.998Z,101912.81
2018-10-19T05:11:35.929Z,101910.12
2018-10-19T05:14:06.091Z,101908.77
2018-10-19T05:16:35.456Z,101906.95
2018-10-19T05:19:04.606Z,101910.98
2018-10-19T05:21:33.500Z,101916.77
2018-10-19T05:24:02.309Z,101921.76
2018-10-19T05:26:31.190Z,101922.98
2018-10-19T05:29:00.476Z,101920.80
2018-10-19T05:31:29.807Z,101925.31
2018-10-19T05:33:59.198Z,101921.76
2018-10-19T05:36:27.999Z,101925.31
2018-10-19T05:38:56.778Z,101922.23
2018-10-19T05:41:25.677Z,101920.41
2018-10-19T05:43:54.467Z,101926.27
2018-10-19T05:46:23.285Z,101933.00
2018-10-19T05:48:52.061Z,101927.27
2018-10-19T05:51:20.823Z,101921.87
2018-10-19T05:53:49.661Z,101924.92
2018-10-19T05:56:18.523Z,101927.63
2018-10-19T05:58:47.395Z,101924.06
2018-10-19T06:01:16.322Z,101926.27
2018-10-19T06:03:45.134Z,101927.27
2018-10-19T06:06:13.965Z,101932.64
2018-10-19T06:08:42.759Z,101927.73
2018-10-19T06:11:11.614Z,101931.78
2018-10-19T06:13:40.404Z,101922.83
2018-10-19T06:16:09.204Z,101932.26
2018-10-19T06:18:37.976Z,101929.56
2018-10-19T06:21:07.140Z,101936.30
2018-10-19T06:23:35.943Z,101930.05
2018-10-19T06:26:05.142Z,101933.60
2018-10-19T06:28:33.931Z,101935.43
2018-10-19T06:31:02.749Z,101948.02
2018-10-19T06:33:31.685Z,101948.50
2018-10-19T06:36:00.469Z,101948.14
2018-10-19T06:38:29.274Z,101952.18
2018-10-19T06:40:58.060Z,101958.91
2018-10-19T06:43:26.750Z,101959.78
2018-10-19T06:45:55.612Z,101956.70
2018-10-19T06:48:24.373Z,101952.53
2018-10-19T06:50:53.152Z,101957.09
2018-10-19T06:53:21.907Z,101961.12
2018-10-19T06:55:50.737Z,101962.95
2018-10-19T06:58:19.515Z,101953.52
2018-10-19T07:00:48.292Z,101949.84
2018-10-19T07:03:17.039Z,101962.83
2018-10-19T07:05:45.928Z,101963.30
2018-10-19T07:08:14.619Z,101970.55
2018-10-19T07:10:43.421Z,101963.81
2018-10-19T07:13:12.178Z,101965.05
2018-10-19T07:15:41.029Z,101966.00
2018-10-19T07:18:09.824Z,101966.86
2018-10-19T07:20:38.561Z,101970.43
2018-10-19T07:23:07.473Z,101968.69
2018-10-19T07:25:36.269Z,101975.34
2018-10-19T07:28:06.723Z,101972.64
2018-10-19T07:30:35.493Z,101981.67
2018-10-19T07:33:04.449Z,101978.98
2018-10-19T07:35:33.203Z,101980.72
2018-10-19T07:38:01.983Z,101978.11
2018-10-19T07:40:31.006Z,101982.55
2018-10-19T07:43:00.598Z,101981.67
2018-10-19T07:45:29.340Z,101975.06
2018-10-19T07:47:58.291Z,101977.75
2018-10-19T07:50:26.973Z,101979.45
2018-10-19T07:52:55.800Z,101984.01
2018-10-19T07:55:24.558Z,101988.05
2018-10-19T07:57:53.285Z,101983.02
2018-10-19T08:00:22.144Z,101989.75
2018-10-19T08:02:50.918Z,101994.27
2018-10-19T08:05:19.737Z,101992.09
2018-10-19T08:07:48.495Z,101998.30
2018-10-19T08:10:17.293Z,102001.51
2018-10-19T08:12:46.126Z,101992.09
2018-10-19T08:15:14.898Z,101996.13
2018-10-19T08:17:43.654Z,101996.95
2018-10-19T08:20:12.428Z,101994.77
2018-10-19T08:22:41.257Z,101994.77
2018-10-19T08:25:10.017Z,101986.70
2018-10-19T08:27:38.799Z,101984.01
2018-10-19T08:30:07.586Z,101986.31
2018-10-19T08:32:36.451Z,101991.22
2018-10-19T08:35:05.355Z,101987.66
2018-10-19T08:37:34.163Z,101988.05
2018-10-19T08:40:03.013Z,101989.87
2018-10-19T08:42:31.813Z,101996.60
2018-10-19T08:45:00.578Z,101988.52
2018-10-19T08:47:29.408Z,101989.87
2018-10-19T08:49:58.224Z,101987.06
2018-10-19T08:52:27.166Z,101990.23
2018-10-19T08:54:55.918Z,101991.97
2018-10-19T08:57:24.690Z,101995.53
2018-10-19T08:59:53.472Z,101988.41
2018-10-19T09:02:22.383Z,101990.14
2018-10-19T09:04:51.264Z,101995.41
2018-10-19T09:07:20.024Z,101994.57
2018-10-19T09:09:49.212Z,101989.55
2018-10-19T09:12:18.047Z,101989.55
2018-10-19T09:14:52.570Z,101992.15
2018-10-19T09:17:21.353Z,101991.76
2018-10-19T09:19:50.341Z,101996.19
2018-10-19T09:22:19.556Z,101992.15
2018-10-19T09:24:48.347Z,101990.81
2018-10-19T09:27:17.374Z,101996.55
2018-10-19T09:29:46.732Z,101988.95
2018-10-19T09:32:15.774Z,102002.80
2018-10-19T09:34:44.679Z,102001.45
2018-10-19T09:37:13.914Z,101997.42
2018-10-19T09:39:42.810Z,101998.28
2018-10-19T09:42:12.044Z,101994.73
2018-10-19T09:44:41.191Z,101996.55
2018-10-19T09:47:10.026Z,101992.98
2018-10-19T09:49:38.802Z,101999.72
2018-10-19T09:52:07.768Z,102002.33
2018-10-19T09:54:36.549Z,101999.63
2018-10-19T09:57:05.607Z,101993.86
2018-10-19T09:59:34.336Z,101993.38
2018-10-19T10:02:03.167Z,101993.86
2018-10-19T10:04:32.036Z,101999.24
2018-10-19T10:07:00.976Z,101997.89
2018-10-19T10:09:29.760Z,101997.03
2018-10-19T10:11:58.522Z,101989.34
2018-10-19T10:14:27.306Z,101983.09
2018-10-19T10:16:56.206Z,101985.30
2018-10-19T10:19:25.087Z,101992.03
2018-10-19T10:21:53.974Z,101986.17
2018-10-19T10:24:22.726Z,101985.30
2018-10-19T10:26:51.510Z,101982.61
2018-10-19T10:29:20.340Z,101980.78
2018-10-19T10:31:49.120Z,101975.40
2018-10-19T10:34:17.968Z,101972.70
2018-10-19T10:36:46.703Z,101974.92
2018-10-19T10:39:15.588Z,101975.40
2018-10-19T10:41:44.282Z,101973.06
2018-10-19T10:44:13.104Z,101968.55
2018-10-19T10:46:41.853Z,101964.52
2018-10-19T10:49:10.660Z,101961.81
2018-10-19T10:51:39.517Z,101959.13
2018-10-19T10:54:08.272Z,101961.81
2018-10-19T10:56:37.024Z,101960.47
2018-10-19T10:59:05.797Z,101964.03
2018-10-19T11:01:34.613Z,101973.34
2018-10-19T11:04:03.531Z,101976.90
2018-10-19T11:06:32.363Z,101983.63
2018-10-19T11:09:01.151Z,101980.06
2018-10-19T11:11:29.908Z,101977.17
2018-10-19T11:13:58.649Z,101970.56
2018-10-19T11:16:27.429Z,101973.13
2018-10-19T11:18:56.141Z,101969.09
2018-10-19T11:21:25.019Z,101965.44
2018-10-19T11:23:53.808Z,101953.69
2018-10-19T11:26:22.602Z,101953.69
2018-10-19T11:28:51.418Z,101950.98
2018-10-19T11:31:20.234Z,101946.95
2018-10-19T11:33:50.922Z,101948.20
2018-10-19T11:36:19.705Z,101948.20
2018-10-19T11:38:48.574Z,101952.25
2018-10-19T11:41:17.393Z,101949.55
2018-10-19T11:43:46.989Z,101942.82
2018-10-19T11:46:15.904Z,101939.65
2018-10-19T11:48:44.790Z,101945.03
2018-10-19T11:51:13.786Z,101948.59
2018-10-19T11:53:42.817Z,101946.73
2018-10-19T11:56:11.966Z,101957.63
2018-10-19T11:58:40.934Z,101960.72
2018-10-19T12:01:10.036Z,101958.11
2018-10-19T12:03:39.011Z,101958.98
2018-10-19T12:06:07.971Z,101967.53
2018-10-19T12:08:37.998Z,101962.15
2018-10-19T12:11:07.155Z,101955.53
2018-10-19T12:13:36.227Z,101945.13
2018-10-19T12:16:06.436Z,101951.38
2018-10-19T12:18:36.913Z,101945.13
2018-10-19T12:21:06.254Z,101942.91
2018-10-19T12:23:35.210Z,101942.08
2018-10-19T12:26:05.334Z,101940.22
2018-10-19T12:28:34.369Z,101941.56
2018-10-19T12:31:03.705Z,101932.14
2018-10-19T12:33:33.867Z,101938.87
2018-10-19T12:36:03.090Z,101938.52
2018-10-19T12:38:31.978Z,101937.52
2018-10-19T12:41:01.146Z,101933.48
2018-10-19T12:43:30.234Z,101939.38
2018-10-19T12:46:41.411Z,101937.05
2018-10-19T12:49:12.599Z,101933.12
2018-10-19T12:54:09.912Z,101926.39
2018-10-19T12:56:39.568Z,101923.70
2018-10-19T12:59:09.373Z,101923.70
2018-10-19T13:01:39.140Z,101919.66
2018-10-19T13:04:08.111Z,101924.57
2018-10-19T13:06:37.075Z,101918.80
2018-10-19T13:09:10.749Z,101914.63
2018-10-19T13:11:39.741Z,101911.94
2018-10-19T13:14:09.341Z,101916.84
2018-10-19T13:16:40.375Z,101914.63
2018-10-19T13:19:09.492Z,101912.33
2018-10-19T13:21:39.594Z,101917.72
2018-10-19T13:24:08.989Z,101912.72
2018-10-19T13:26:38.090Z,101915.41
2018-10-19T13:29:07.078Z,101918.98
2018-10-19T13:31:36.187Z,101915.30
2018-10-19T13:34:06.416Z,101906.34
2018-10-19T13:36:35.502Z,101908.08
2018-10-19T13:39:06.933Z,101904.52
2018-10-19T13:41:35.948Z,101903.09
2018-10-19T13:44:05.076Z,101898.18
2018-10-19T13:46:34.253Z,101891.92
2018-10-19T13:49:03.261Z,101889.62
2018-10-19T13:51:32.563Z,101903.44
2018-10-19T13:54:01.637Z,101899.88
2018-10-19T13:56:30.933Z,101895.48
2018-10-19T13:59:00.131Z,101895.84
2018-10-19T14:01:30.371Z,101890.97
2018-10-19T14:03:59.345Z,101886.53
2018-10-19T14:06:28.516Z,101886.06
2018-10-19T14:08:57.489Z,101886.92
2018-10-19T14:11:26.585Z,101882.11
2018-10-19T14:13:55.576Z,101875.89
2018-10-19T14:16:24.566Z,101880.28
2018-10-19T14:18:53.416Z,101880.28
2018-10-19T14:21:22.226Z,101878.58
2018-10-19T14:23:51.061Z,101884.45
2018-10-19T14:26:19.865Z,101888.01
2018-10-19T14:28:48.816Z,101883.10
2018-10-19T14:31:17.627Z,101879.53
2018-10-19T14:33:46.437Z,101885.80
2018-10-19T14:36:15.332Z,101882.71
2018-10-19T14:38:44.191Z,101878.67
2018-10-19T14:41:13.009Z,101880.50
2018-10-19T14:43:42.011Z,101880.97
2018-10-19T14:46:10.841Z,101875.11
2018-10-19T14:48:39.722Z,101878.28
2018-10-19T14:51:08.598Z,101872.06
2018-10-19T14:53:37.573Z,101874.75
2018-10-19T14:56:06.399Z,101876.58
2018-10-19T14:58:35.227Z,101872.54
2018-10-19T15:01:04.144Z,101883.66
2018-10-19T15:03:33.020Z,101869.58
2018-10-19T15:06:02.076Z,101877.45
2018-10-19T15:08:31.029Z,101876.58
2018-10-19T15:11:00.015Z,101866.28
2018-10-19T15:13:28.843Z,101868.02
2018-10-19T15:15:57.644Z,101863.11
2018-10-19T15:18:26.589Z,101863.59
2018-10-19T15:20:56.533Z,101860.90
2018-10-19T15:23:25.281Z,101859.55
2018-10-19T15:25:54.089Z,101857.73
2018-10-19T15:28:23.046Z,101860.90
2018-10-19T15:30:51.992Z,101856.86
2018-10-19T15:33:20.885Z,101854.65
2018-10-19T15:35:49.718Z,101855.04
2018-10-19T15:38:21.355Z,101854.56
2018-10-19T15:40:50.211Z,101856.86
2018-10-19T15:43:19.186Z,101856.38
2018-10-19T15:45:48.314Z,101859.55
2018-10-19T15:48:17.508Z,101861.29
2018-10-19T15:50:46.948Z,101861.77
2018-10-19T15:53:16.281Z,101867.16
2018-10-19T15:55:45.105Z,101868.98
2018-10-19T15:58:14.118Z,101867.52
2018-10-19T16:00:43.076Z,101865.80
2018-10-19T16:03:11.913Z,101863.11
2018-10-19T16:05:41.762Z,101868.38
2018-10-19T16:08:10.662Z,101866.16
2018-10-19T16:10:39.482Z,101859.95
2018-10-19T16:13:08.409Z,101853.69
2018-10-19T16:15:37.307Z,101847.44
2018-10-19T16:18:06.297Z,101849.27
2018-10-19T16:20:35.223Z,101849.27
2018-10-19T16:25:32.566Z,101846.30
2018-10-19T16:28:03.352Z,101846.78
2018-10-19T16:30:33.113Z,101848.13
2018-10-19T16:33:02.010Z,101848.73
2018-10-19T16:35:30.836Z,101853.03
2018-10-19T16:37:59.779Z,101850.82
2018-10-19T16:40:29.190Z,101851.33
2018-10-19T16:42:58.085Z,101845.08
2018-10-19T16:45:26.910Z,101839.70
2018-10-19T16:47:56.081Z,101841.05
2018-10-19T16:50:25.153Z,101843.83
2018-10-19T16:52:54.057Z,101847.03
2018-10-19T16:55:22.987Z,101846.03
2018-10-19T16:57:51.921Z,101854.59
2018-10-19T17:00:20.900Z,101852.41
2018-10-19T17:02:49.829Z,101850.55
2018-10-19T17:05:18.675Z,101847.38
2018-10-19T17:07:47.459Z,101845.68
2018-10-19T17:10:16.331Z,101851.06
2018-10-19T17:12:45.282Z,101855.58
2018-10-19T17:15:14.115Z,101854.23
2018-10-19T17:17:42.999Z,101852.02
2018-10-19T17:20:11.889Z,101857.41
2018-10-19T17:22:40.758Z,101852.02
2018-10-19T17:25:11.759Z,101856.06
2018-10-19T17:27:41.322Z,101853.84
2018-10-19T17:30:12.298Z,101852.50
2018-10-19T17:32:41.510Z,101859.23
2018-10-19T17:35:10.828Z,101859.36
2018-10-19T17:37:39.781Z,101857.53
2018-10-19T17:40:09.797Z,101856.19
2018-10-19T17:42:38.644Z,101861.06
2018-10-19T17:45:09.275Z,101863.39
2018-10-19T17:47:38.370Z,101862.91
2018-10-19T17:50:07.153Z,101861.92
2018-10-19T17:52:36.051Z,101855.67
2018-10-19T17:55:06.531Z,101850.67
2018-10-19T17:57:35.364Z,101854.72
2018-10-19T18:00:04.397Z,101855.20
2018-10-19T18:02:33.177Z,101854.33
2018-10-19T18:05:02.213Z,101851.64
2018-10-19T18:07:31.018Z,101852.50
2018-10-19T18:09:59.799Z,101852.15
2018-10-19T18:12:28.652Z,101857.41
2018-10-19T18:14:57.603Z,101851.64
2018-10-19T18:17:26.455Z,101854.23
2018-10-19T18:19:55.329Z,101852.02
2018-10-19T18:22:24.441Z,101856.45
2018-10-19T18:24:53.465Z,101864.02
2018-10-19T18:27:22.303Z,101866.63
2018-10-19T18:29:51.107Z,101863.92
2018-10-19T18:32:20.011Z,101863.45
2018-10-19T18:34:48.925Z,101869.19
2018-10-19T18:37:17.871Z,101866.50
2018-10-19T18:39:46.820Z,101872.75
2018-10-19T18:42:15.712Z,101878.88
2018-10-19T18:44:44.593Z,101881.97
2018-10-19T18:47:13.639Z,101877.06
2018-10-19T18:49:42.487Z,101871.19
2018-10-19T18:52:11.538Z,101874.75
2018-10-19T18:54:40.488Z,101872.06
2018-10-19T18:57:09.462Z,101865.80
2018-10-19T18:59:38.596Z,101859.08
2018-10-19T19:02:07.565Z,101864.81
2018-10-19T19:04:36.777Z,101859.55
2018-10-19T19:07:07.614Z,101852.34
2018-10-19T19:09:36.466Z,101854.65
2018-10-19T19:12:05.642Z,101852.82
2018-10-19T19:14:34.845Z,101860.03
2018-10-19T19:17:03.854Z,101857.34
2018-10-19T19:19:32.846Z,101862.73
2018-10-19T19:22:01.962Z,101859.55
2018-10-19T19:24:36.203Z,101857.47
2018-10-19T19:27:05.456Z,101857.47
2018-10-19T19:29:34.353Z,101853.91
2018-10-19T19:32:03.289Z,101851.69
2018-10-19T19:34:34.513Z,101855.38
2018-10-19T19:37:03.677Z,101854.86
2018-10-19T19:39:32.862Z,101855.73
2018-10-19T19:42:07.125Z,101845.44
2018-10-19T19:44:36.257Z,101839.96
2018-10-19T19:47:05.794Z,101838.13
2018-10-19T19:49:36.721Z,101841.19
2018-10-19T19:52:06.285Z,101843.87
2018-10-19T19:54:35.445Z,101841.09
2018-10-19T19:57:05.020Z,101841.84
2018-10-19T19:59:33.900Z,101836.84
2018-10-19T20:02:03.413Z,101841.14
2018-10-19T20:04:32.345Z,101836.98
2018-10-19T20:07:01.901Z,101834.16
2018-10-19T20:09:31.924Z,101831.41
2018-10-19T20:12:01.312Z,101830.33
2018-10-19T20:14:30.604Z,101827.42
2018-10-19T20:16:59.873Z,101823.25
2018-10-19T20:19:28.766Z,101823.52
2018-10-19T20:21:58.213Z,101818.39
2018-10-19T20:24:27.096Z,101818.66
2018-10-19T20:26:56.667Z,101815.00
2018-10-19T20:29:26.174Z,101809.01
2018-10-19T20:31:55.310Z,101812.92
2018-10-19T20:34:25.281Z,101817.61
2018-10-19T20:36:54.227Z,101818.87
2018-10-19T20:39:23.426Z,101810.53
2018-10-19T20:41:53.399Z,101811.30
2018-10-19T20:44:22.675Z,101813.88
2018-10-19T20:46:51.541Z,101808.74
2018-10-19T20:49:20.484Z,101802.87
2018-10-19T20:51:49.341Z,101805.92
2018-10-19T20:54:18.358Z,101799.48
2018-10-19T20:56:47.234Z,101806.09
2018-10-19T20:59:16.124Z,101800.09
2018-10-19T21:01:45.107Z,101800.47
2018-10-19T21:04:14.218Z,101801.22
2018-10-19T21:06:44.250Z,101798.39
2018-10-19T21:09:13.095Z,101794.25
2018-10-19T21:11:43.145Z,101796.82
2018-10-19T21:14:12.598Z,101790.47
2018-10-19T21:16:41.474Z,101792.68
2018-10-19T21:19:12.076Z,101792.94
2018-10-19T21:21:41.192Z,101792.33
2018-10-19T21:24:10.170Z,101793.06
2018-10-19T21:26:40.569Z,101786.59
2018-10-19T21:29:10.050Z,101787.32
2018-10-19T21:31:39.520Z,101784.53
2018-10-19T21:34:09.214Z,101785.14
2018-10-19T21:36:38.974Z,101784.17
2018-10-19T21:39:11.714Z,101784.91
2018-10-19T21:41:40.831Z,101781.67
2018-10-19T21:44:10.476Z,101778.36
2018-10-19T21:46:40.779Z,101779.96
2018-10-19T21:49:10.022Z,101786.95
2018-10-19T21:51:39.171Z,101781.44
2018-10-19T21:54:08.153Z,101784.03
2018-10-19T21:56:37.786Z,101779.86
2018-10-19T21:59:09.462Z,101782.94
2018-10-19T22:01:38.628Z,101789.55
2018-10-19T22:04:07.836Z,101779.63
2018-10-19T22:06:37.353Z,101780.49
2018-10-19T22:09:11.693Z,101783.55
2018-10-19T22:11:41.508Z,101787.59
2018-10-19T22:14:11.336Z,101800.23
2018-10-19T22:16:41.108Z,101796.67
2018-10-19T22:19:10.941Z,101791.77
2018-10-19T22:21:40.754Z,101794.94
2018-10-19T22:24:10.555Z,101792.73
2018-10-19T22:26:40.094Z,101797.64
2018-10-19T22:29:12.579Z,101802.17
2018-10-19T22:31:41.890Z,101801.43
2018-10-19T22:34:11.708Z,101803.64
2018-10-19T22:36:40.943Z,101800.08
2018-10-19T22:39:09.989Z,101809.14
2018-10-19T22:44:09.587Z,101807.80
2018-10-19T22:46:40.175Z,101803.36
2018-10-19T22:49:09.033Z,101796.23
2018-10-19T22:51:38.032Z,101794.41
2018-10-19T22:54:07.567Z,101802.02
2018-10-19T22:56:36.489Z,101792.96
2018-10-19T22:59:06.030Z,101787.92
2018-10-19T23:01:35.315Z,101784.36
2018-10-19T23:04:04.223Z,101785.22
2018-10-19T23:06:33.163Z,101784.26
2018-10-19T23:09:02.711Z,101778.48
2018-10-19T23:11:31.433Z,101786.58
2018-10-19T23:14:00.480Z,101787.44
2018-10-19T23:16:29.680Z,101785.61
2018-10-19T23:18:58.979Z,101786.95
2018-10-19T23:21:29.764Z,101781.66
2018-10-19T23:23:59.590Z,101785.61
2018-10-19T23:26:29.585Z,101773.57
2018-10-19T23:28:58.867Z,101771.74
2018-10-19T23:31:27.758Z,101764.13
2018-10-19T23:33:56.823Z,101767.70
2018-10-19T23:36:25.661Z,101770.39
2018-10-19T23:38:54.520Z,101771.39
2018-10-19T23:41:23.332Z,101768.70
2018-10-19T23:43:52.204Z,101766.00
2018-10-19T23:46:21.048Z,101760.61
2018-10-19T23:48:49.845Z,101765.13
2018-10-19T23:51:18.735Z,101760.09
2018-10-19T23:53:47.519Z,101760.61
2018-10-19T23:56:16.568Z,101756.56
2018-10-19T23:58:45.706Z,101761.09
